sensor_id;sensor_type;location;lat;lon;timestamp;temperature;humidity
78475;SHT31;67766;51.964;5.660;2023-04-30T15:57:22;22.9;32.9
78475;SHT31;67766;51.964;5.660;2023-04-30T15:59:55;22.8;32.5
78475;SHT31;67766;51.964;5.660;2023-04-30T16:02:25;22.7;34.0
78475;SHT31;67766;51.964;5.660;2023-04-30T16:04:56;22.6;34.1
78475;SHT31;67766;51.964;5.660;2023-04-30T16:07:28;22.5;34.2
78475;SHT31;67766;51.964;5.660;2023-04-30T16:09:59;22.4;34.1
78475;SHT31;67766;51.964;5.660;2023-04-30T16:12:30;22.4;33.9
78475;SHT31;67766;51.964;5.660;2023-04-30T16:15:00;22.3;34.8
78475;SHT31;67766;51.964;5.660;2023-04-30T16:17:31;22.3;34.5
78475;SHT31;67766;51.964;5.660;2023-04-30T16:20:01;22.2;34.5
78475;SHT31;67766;51.964;5.660;2023-04-30T16:22:31;22.2;34.0
78475;SHT31;67766;51.964;5.660;2023-04-30T16:25:00;22.2;33.7
78475;SHT31;67766;51.964;5.660;2023-04-30T16:27:30;22.1;34.1
78475;SHT31;67766;51.964;5.660;2023-04-30T16:30:00;22.1;34.5
78475;SHT31;67766;51.964;5.660;2023-04-30T16:32:30;22.1;34.8
78475;SHT31;67766;51.964;5.660;2023-04-30T16:35:00;22.0;35.2
78475;SHT31;67766;51.964;5.660;2023-04-30T16:37:30;22.0;34.4
78475;SHT31;67766;51.964;5.660;2023-04-30T16:39:59;22.0;35.0
78475;SHT31;67766;51.964;5.660;2023-04-30T16:42:29;22.0;34.9
78475;SHT31;67766;51.964;5.660;2023-04-30T16:45:00;21.9;35.0
78475;SHT31;67766;51.964;5.660;2023-04-30T16:47:32;21.9;34.9
78475;SHT31;67766;51.964;5.660;2023-04-30T16:50:02;21.8;35.8
78475;SHT31;67766;51.964;5.660;2023-04-30T16:52:32;21.8;34.9
78475;SHT31;67766;51.964;5.660;2023-04-30T16:55:02;21.7;34.8
78475;SHT31;67766;51.964;5.660;2023-04-30T16:57:32;21.7;35.2
78475;SHT31;67766;51.964;5.660;2023-04-30T17:00:03;21.6;35.7
78475;SHT31;67766;51.964;5.660;2023-04-30T17:02:37;21.6;35.9
78475;SHT31;67766;51.964;5.660;2023-04-30T17:05:09;21.5;36.0
78475;SHT31;67766;51.964;5.660;2023-04-30T17:07:40;21.4;36.0
78475;SHT31;67766;51.964;5.660;2023-04-30T17:10:11;21.4;36.7
78475;SHT31;67766;51.964;5.660;2023-04-30T17:12:41;21.3;37.7
78475;SHT31;67766;51.964;5.660;2023-04-30T17:15:12;21.3;37.6
78475;SHT31;67766;51.964;5.660;2023-04-30T17:17:42;21.3;37.7
78475;SHT31;67766;51.964;5.660;2023-04-30T17:20:13;21.3;37.7
78475;SHT31;67766;51.964;5.660;2023-04-30T17:22:44;21.3;37.7
78475;SHT31;67766;51.964;5.660;2023-04-30T17:25:14;21.3;37.7
78475;SHT31;67766;51.964;5.660;2023-04-30T17:27:44;21.3;37.8
78475;SHT31;67766;51.964;5.660;2023-04-30T17:30:16;21.3;38.0
78475;SHT31;67766;51.964;5.660;2023-04-30T17:32:46;21.3;38.2
78475;SHT31;67766;51.964;5.660;2023-04-30T17:35:15;21.2;38.5
78475;SHT31;67766;51.964;5.660;2023-04-30T17:37:45;21.2;38.2
78475;SHT31;67766;51.964;5.660;2023-04-30T17:40:15;21.2;38.7
78475;SHT31;67766;51.964;5.660;2023-04-30T17:42:45;21.2;38.8
78475;SHT31;67766;51.964;5.660;2023-04-30T17:45:18;21.1;38.9
78475;SHT31;67766;51.964;5.660;2023-04-30T17:47:48;21.1;39.0
78475;SHT31;67766;51.964;5.660;2023-04-30T17:50:18;21.1;39.2
78475;SHT31;67766;51.964;5.660;2023-04-30T17:52:47;21.1;38.8
78475;SHT31;67766;51.964;5.660;2023-04-30T17:55:19;21.0;39.0
78475;SHT31;67766;51.964;5.660;2023-04-30T17:57:50;21.0;39.2
78475;SHT31;67766;51.964;5.660;2023-04-30T18:00:20;21.0;39.1
78475;SHT31;67766;51.964;5.660;2023-04-30T18:02:50;21.0;39.0
78475;SHT31;67766;51.964;5.660;2023-04-30T18:05:20;21.0;38.8
78475;SHT31;67766;51.964;5.660;2023-04-30T18:07:49;21.0;38.8
78475;SHT31;67766;51.964;5.660;2023-04-30T18:10:19;21.0;39.0
78475;SHT31;67766;51.964;5.660;2023-04-30T18:12:49;21.1;39.1
78475;SHT31;67766;51.964;5.660;2023-04-30T18:15:18;21.1;38.7
78475;SHT31;67766;51.964;5.660;2023-04-30T18:17:48;21.0;38.8
78475;SHT31;67766;51.964;5.660;2023-04-30T18:20:19;21.0;38.3
78475;SHT31;67766;51.964;5.660;2023-04-30T18:22:48;21.0;38.2
78475;SHT31;67766;51.964;5.660;2023-04-30T18:25:18;20.9;38.1
78475;SHT31;67766;51.964;5.660;2023-04-30T18:27:48;20.9;37.1
78475;SHT31;67766;51.964;5.660;2023-04-30T18:30:18;20.8;37.0
78475;SHT31;67766;51.964;5.660;2023-04-30T18:32:47;20.7;36.5
78475;SHT31;67766;51.964;5.660;2023-04-30T18:35:17;20.6;36.9
78475;SHT31;67766;51.964;5.660;2023-04-30T18:37:48;20.6;37.0
78475;SHT31;67766;51.964;5.660;2023-04-30T18:40:20;20.5;36.8
78475;SHT31;67766;51.964;5.660;2023-04-30T18:42:50;20.4;37.1
78475;SHT31;67766;51.964;5.660;2023-04-30T18:45:21;20.3;37.5
78475;SHT31;67766;51.964;5.660;2023-04-30T18:47:50;20.3;37.6
78475;SHT31;67766;51.964;5.660;2023-04-30T18:50:23;20.2;37.7
78475;SHT31;67766;51.964;5.660;2023-04-30T18:52:53;20.2;37.9
78475;SHT31;67766;51.964;5.660;2023-04-30T18:55:23;20.1;38.9
78475;SHT31;67766;51.964;5.660;2023-04-30T18:57:52;20.1;38.7
78475;SHT31;67766;51.964;5.660;2023-04-30T19:00:24;20.0;38.8
78475;SHT31;67766;51.964;5.660;2023-04-30T19:02:55;20.0;40.6
78475;SHT31;67766;51.964;5.660;2023-04-30T19:05:25;20.0;39.9
78475;SHT31;67766;51.964;5.660;2023-04-30T19:07:54;20.0;39.2
78475;SHT31;67766;51.964;5.660;2023-04-30T19:10:24;20.0;38.8
78475;SHT31;67766;51.964;5.660;2023-04-30T19:12:54;20.0;39.0
78475;SHT31;67766;51.964;5.660;2023-04-30T19:15:23;19.9;38.9
78475;SHT31;67766;51.964;5.660;2023-04-30T19:17:56;19.9;39.1
78475;SHT31;67766;51.964;5.660;2023-04-30T19:20:28;19.9;39.2
78475;SHT31;67766;51.964;5.660;2023-04-30T19:22:57;19.8;39.1
78475;SHT31;67766;51.964;5.660;2023-04-30T19:25:28;19.8;39.1
78475;SHT31;67766;51.964;5.660;2023-04-30T19:27:57;19.7;39.3
78475;SHT31;67766;51.964;5.660;2023-04-30T19:30:28;19.7;39.2
78475;SHT31;67766;51.964;5.660;2023-04-30T19:32:57;19.6;39.6
78475;SHT31;67766;51.964;5.660;2023-04-30T19:35:27;19.6;40.1
78475;SHT31;67766;51.964;5.660;2023-04-30T19:37:56;19.6;40.0
78475;SHT31;67766;51.964;5.660;2023-04-30T19:40:26;19.5;40.1
78475;SHT31;67766;51.964;5.660;2023-04-30T19:42:55;19.5;40.0
78475;SHT31;67766;51.964;5.660;2023-04-30T19:45:27;19.5;40.1
78475;SHT31;67766;51.964;5.660;2023-04-30T19:47:56;19.4;40.1
78475;SHT31;67766;51.964;5.660;2023-04-30T19:50:26;19.4;40.2
78475;SHT31;67766;51.964;5.660;2023-04-30T19:52:56;19.3;40.2
78475;SHT31;67766;51.964;5.660;2023-04-30T19:55:25;19.3;40.5
78475;SHT31;67766;51.964;5.660;2023-04-30T19:57:55;19.2;40.5
78475;SHT31;67766;51.964;5.660;2023-04-30T20:00:25;19.2;40.5
78475;SHT31;67766;51.964;5.660;2023-04-30T20:02:55;19.2;40.5
78475;SHT31;67766;51.964;5.660;2023-04-30T20:05:28;19.1;40.5
78475;SHT31;67766;51.964;5.660;2023-04-30T20:07:58;19.1;40.6
78475;SHT31;67766;51.964;5.660;2023-04-30T20:10:28;19.1;40.6
78475;SHT31;67766;51.964;5.660;2023-04-30T20:12:58;19.0;40.8
78475;SHT31;67766;51.964;5.660;2023-04-30T20:15:30;19.0;40.7
78475;SHT31;67766;51.964;5.660;2023-04-30T20:18:00;19.0;40.8
78475;SHT31;67766;51.964;5.660;2023-04-30T20:20:31;18.9;41.0
78475;SHT31;67766;51.964;5.660;2023-04-30T20:23:12;18.9;40.9
78475;SHT31;67766;51.964;5.660;2023-04-30T20:25:44;18.9;40.9
78475;SHT31;67766;51.964;5.660;2023-04-30T20:28:15;18.9;41.0
78475;SHT31;67766;51.964;5.660;2023-04-30T20:30:45;18.8;41.2
78475;SHT31;67766;51.964;5.660;2023-04-30T20:33:16;18.8;41.4
78475;SHT31;67766;51.964;5.660;2023-04-30T20:35:45;18.8;41.3
78475;SHT31;67766;51.964;5.660;2023-04-30T20:38:15;18.8;41.4
78475;SHT31;67766;51.964;5.660;2023-04-30T20:40:47;18.8;41.2
78475;SHT31;67766;51.964;5.660;2023-04-30T20:43:19;18.7;41.6
78475;SHT31;67766;51.964;5.660;2023-04-30T20:45:57;18.7;42.1
78475;SHT31;67766;51.964;5.660;2023-04-30T20:48:27;18.7;41.2
78475;SHT31;67766;51.964;5.660;2023-04-30T20:50:57;18.7;41.2
78475;SHT31;67766;51.964;5.660;2023-04-30T20:53:26;18.7;41.5
78475;SHT31;67766;51.964;5.660;2023-04-30T20:55:57;18.6;42.2
78475;SHT31;67766;51.964;5.660;2023-04-30T20:58:27;18.6;41.7
78475;SHT31;67766;51.964;5.660;2023-04-30T21:00:57;18.6;41.7
78475;SHT31;67766;51.964;5.660;2023-04-30T21:03:27;18.6;41.9
78475;SHT31;67766;51.964;5.660;2023-04-30T21:05:57;18.5;42.5
78475;SHT31;67766;51.964;5.660;2023-04-30T21:08:26;18.5;42.0
78475;SHT31;67766;51.964;5.660;2023-04-30T21:10:57;18.5;41.8
78475;SHT31;67766;51.964;5.660;2023-04-30T21:13:26;18.5;41.8
78475;SHT31;67766;51.964;5.660;2023-04-30T21:15:57;18.4;42.3
78475;SHT31;67766;51.964;5.660;2023-04-30T21:18:26;18.4;42.8
78475;SHT31;67766;51.964;5.660;2023-04-30T21:21:02;18.4;43.4
78475;SHT31;67766;51.964;5.660;2023-04-30T21:23:33;18.4;42.2
78475;SHT31;67766;51.964;5.660;2023-04-30T21:26:04;18.4;42.6
78475;SHT31;67766;51.964;5.660;2023-04-30T21:28:34;18.3;42.9
78475;SHT31;67766;51.964;5.660;2023-04-30T21:31:05;18.3;42.8
78475;SHT31;67766;51.964;5.660;2023-04-30T21:33:36;18.3;42.6
78475;SHT31;67766;51.964;5.660;2023-04-30T21:36:06;18.3;41.9
78475;SHT31;67766;51.964;5.660;2023-04-30T21:38:36;18.3;42.7
78475;SHT31;67766;51.964;5.660;2023-04-30T21:41:07;18.2;42.0
78475;SHT31;67766;51.964;5.660;2023-04-30T21:43:41;18.2;42.8
78475;SHT31;67766;51.964;5.660;2023-04-30T21:46:11;18.2;42.7
78475;SHT31;67766;51.964;5.660;2023-04-30T21:48:41;18.1;42.6
78475;SHT31;67766;51.964;5.660;2023-04-30T21:51:15;18.1;42.2
78475;SHT31;67766;51.964;5.660;2023-04-30T21:53:45;18.1;42.3
78475;SHT31;67766;51.964;5.660;2023-04-30T21:56:15;18.0;42.4
78475;SHT31;67766;51.964;5.660;2023-04-30T21:58:45;18.0;42.3
78475;SHT31;67766;51.964;5.660;2023-04-30T22:01:14;18.0;42.4
78475;SHT31;67766;51.964;5.660;2023-04-30T22:03:44;18.0;42.5
78475;SHT31;67766;51.964;5.660;2023-04-30T22:06:14;17.9;42.7
78475;SHT31;67766;51.964;5.660;2023-04-30T22:08:43;17.9;42.8
78475;SHT31;67766;51.964;5.660;2023-04-30T22:11:14;17.9;43.0
78475;SHT31;67766;51.964;5.660;2023-04-30T22:13:44;17.8;43.2
78475;SHT31;67766;51.964;5.660;2023-04-30T22:16:13;17.8;43.2
78475;SHT31;67766;51.964;5.660;2023-04-30T22:18:43;17.8;43.4
78475;SHT31;67766;51.964;5.660;2023-04-30T22:21:13;17.8;43.5
78475;SHT31;67766;51.964;5.660;2023-04-30T22:23:43;17.7;43.3
78475;SHT31;67766;51.964;5.660;2023-04-30T22:26:13;17.7;43.5
78475;SHT31;67766;51.964;5.660;2023-04-30T22:28:43;17.7;43.7
78475;SHT31;67766;51.964;5.660;2023-04-30T22:31:13;17.7;43.8
78475;SHT31;67766;51.964;5.660;2023-04-30T22:33:44;17.6;43.9
78475;SHT31;67766;51.964;5.660;2023-04-30T22:36:14;17.6;44.0
78475;SHT31;67766;51.964;5.660;2023-04-30T22:38:44;17.5;44.3
78475;SHT31;67766;51.964;5.660;2023-04-30T22:41:14;17.5;44.4
78475;SHT31;67766;51.964;5.660;2023-04-30T22:43:44;17.5;44.5
78475;SHT31;67766;51.964;5.660;2023-04-30T22:46:14;17.4;44.7
78475;SHT31;67766;51.964;5.660;2023-04-30T22:48:44;17.4;44.9
78475;SHT31;67766;51.964;5.660;2023-04-30T22:51:14;17.3;44.9
78475;SHT31;67766;51.964;5.660;2023-04-30T22:53:44;17.3;45.1
78475;SHT31;67766;51.964;5.660;2023-04-30T22:56:14;17.2;45.1
78475;SHT31;67766;51.964;5.660;2023-04-30T22:58:43;17.2;45.2
78475;SHT31;67766;51.964;5.660;2023-04-30T23:01:13;17.2;45.4
78475;SHT31;67766;51.964;5.660;2023-04-30T23:03:43;17.1;45.4
78475;SHT31;67766;51.964;5.660;2023-04-30T23:06:12;17.1;45.3
78475;SHT31;67766;51.964;5.660;2023-04-30T23:08:42;17.1;45.4
78475;SHT31;67766;51.964;5.660;2023-04-30T23:11:14;17.1;45.4
78475;SHT31;67766;51.964;5.660;2023-04-30T23:13:44;17.0;45.4
78475;SHT31;67766;51.964;5.660;2023-04-30T23:16:16;17.0;45.4
78475;SHT31;67766;51.964;5.660;2023-04-30T23:18:47;17.0;45.6
78475;SHT31;67766;51.964;5.660;2023-04-30T23:21:17;17.0;45.5
78475;SHT31;67766;51.964;5.660;2023-04-30T23:23:48;16.9;45.7
78475;SHT31;67766;51.964;5.660;2023-04-30T23:26:18;16.9;45.7
78475;SHT31;67766;51.964;5.660;2023-04-30T23:28:47;16.9;45.7
78475;SHT31;67766;51.964;5.660;2023-04-30T23:31:17;16.8;45.9
78475;SHT31;67766;51.964;5.660;2023-04-30T23:33:47;16.8;45.8
78475;SHT31;67766;51.964;5.660;2023-04-30T23:36:17;16.8;45.9
78475;SHT31;67766;51.964;5.660;2023-04-30T23:38:47;16.8;46.1
78475;SHT31;67766;51.964;5.660;2023-04-30T23:41:17;16.8;45.9
78475;SHT31;67766;51.964;5.660;2023-04-30T23:43:47;16.7;46.0
78475;SHT31;67766;51.964;5.660;2023-04-30T23:46:17;16.7;46.0
78475;SHT31;67766;51.964;5.660;2023-04-30T23:48:47;16.7;46.0
78475;SHT31;67766;51.964;5.660;2023-04-30T23:51:17;16.7;45.9
78475;SHT31;67766;51.964;5.660;2023-04-30T23:53:48;16.7;46.1
78475;SHT31;67766;51.964;5.660;2023-04-30T23:56:19;16.7;46.3
78475;SHT31;67766;51.964;5.660;2023-04-30T23:58:49;16.7;46.3
